»·PEaware :: DAL4243 KSFO-KLAX

DAL4243 :: KSFO-KLAX

FLIGHT INFORMATION

Flight Status: Arrived
Operator:
Delta Air Lines
More flights by this operator :: More flights under this callsign
Pilot: Sean B. (13609)
Aircraft: BOEING 757-200
(B752)
More flights by this aircraft type
Origin: KSFO San Francisco Intl
United States
Destination: KLAX Los Angeles Intl
United States
More flights between these airports :: More routes between these airports
Route: +SSTIK3 EBAYE AVE SADDE7
File this flight plan on PilotEdge
Remarks:
Altitude:
(Current/Filed)
35,000ft
Speed:
(Current/Filed)
430kts
Departed: 04-Jan-17 07:19 PM
Arrived: 04-Jan-17 08:23 PM
Distance/Time
Traveled:
293nm/1:04
Distance/Time
To Go:
Arrived

Flight Plot

Page will automatically refresh every two minutes.


Map Options




Map Legend


Flown Route
Filed Route
Departure Airport
Arrival Airport
Navaid (VOR, NDB)
Fix

Horizontal Profiles

Position Reports

Time Latitude Longitude Heading Altitude Ground
Speed
04-Jan-17 18:41 37.614307 -122.382761 27 34ft 0kts
04-Jan-17 18:42 37.614307 -122.382761 27 34ft 0kts
04-Jan-17 18:43 37.614307 -122.382761 27 34ft 0kts
04-Jan-17 18:44 37.614307 -122.382761 27 34ft 0kts
04-Jan-17 18:45 37.614307 -122.382761 27 34ft 0kts
04-Jan-17 18:46 37.614307 -122.382761 27 34ft 0kts
04-Jan-17 18:47 37.614307 -122.382761 27 34ft 0kts
04-Jan-17 18:48 37.614307 -122.382761 27 34ft 0kts
04-Jan-17 18:49 37.614307 -122.382761 27 34ft 0kts
04-Jan-17 18:50 37.614307 -122.382761 27 34ft 0kts
04-Jan-17 18:51 37.614307 -122.382761 27 34ft 0kts
04-Jan-17 18:52 37.614307 -122.382761 27 34ft 0kts
04-Jan-17 18:53 37.614307 -122.382761 27 34ft 0kts
04-Jan-17 18:54 37.614307 -122.382761 27 34ft 0kts
04-Jan-17 18:55 37.614307 -122.382761 27 34ft 0kts
04-Jan-17 18:56 37.614307 -122.382761 27 34ft 0kts
04-Jan-17 18:57 37.614307 -122.382761 27 34ft 0kts
04-Jan-17 18:58 37.614307 -122.382761 27 34ft 0kts
04-Jan-17 18:59 37.614307 -122.382761 27 34ft 0kts
04-Jan-17 19:00 37.614307 -122.382761 27 34ft 0kts
04-Jan-17 19:01 37.614307 -122.382761 27 34ft 0kts
04-Jan-17 19:02 37.614307 -122.382761 27 34ft 0kts
04-Jan-17 19:03 37.614307 -122.382761 27 34ft 0kts
04-Jan-17 19:04 37.614307 -122.382761 27 34ft 0kts
04-Jan-17 19:05 37.614307 -122.382761 27 34ft 0kts
04-Jan-17 19:06 37.614294 -122.382769 27 34ft 1kts
04-Jan-17 19:07 37.613901 -122.383048 68 35ft 1kts
04-Jan-17 19:08 37.613916 -122.383231 119 35ft 0kts
04-Jan-17 19:09 37.613916 -122.383231 119 35ft 0kts
04-Jan-17 19:10 37.613916 -122.383231 119 35ft 0kts
04-Jan-17 19:11 37.613916 -122.383231 119 35ft 0kts
04-Jan-17 19:12 37.613916 -122.383231 119 35ft 0kts
04-Jan-17 19:13 37.613868 -122.383121 118 35ft 2kts
04-Jan-17 19:14 37.612751 -122.382220 204 34ft 10kts
04-Jan-17 19:15 37.610379 -122.383767 211 34ft 13kts
04-Jan-17 19:16 37.609105 -122.383619 123 34ft 0kts
04-Jan-17 19:17 37.609105 -122.383619 123 34ft 0kts
04-Jan-17 19:18 37.608972 -122.382296 40 32ft 12kts
04-Jan-17 19:19 37.625815 -122.370920 26 699ft 164kts
04-Jan-17 19:20 37.665552 -122.364285 356 2949ft 198kts
04-Jan-17 19:21 37.699606 -122.394352 274 5144ft 232kts
04-Jan-17 19:22 37.679956 -122.431134 205 7487ft 253kts
04-Jan-17 19:23 37.628656 -122.440972 197 9963ft 269kts
04-Jan-17 19:24 37.550679 -122.459653 198 9985ft 265kts
04-Jan-17 19:25 37.495546 -122.469794 174 9984ft 278kts
04-Jan-17 19:26 37.437968 -122.406397 138 10864ft 366kts
04-Jan-17 19:27 37.382909 -122.331312 139 13446ft 387kts
04-Jan-17 19:28 37.310998 -122.234196 139 16063ft 416kts
04-Jan-17 19:29 37.257383 -122.161377 140 17743ft 433kts
04-Jan-17 19:30 37.178586 -122.055842 141 20187ft 447kts
04-Jan-17 19:31 37.099792 -121.951160 141 22203ft 464kts
04-Jan-17 19:32 37.024764 -121.852508 141 23880ft 477kts
04-Jan-17 19:33 36.939435 -121.738709 140 25582ft 492kts
04-Jan-17 19:34 36.852497 -121.621238 141 27123ft 505kts
04-Jan-17 19:35 36.762787 -121.500369 142 28573ft 516kts
04-Jan-17 19:36 36.670019 -121.378712 143 29929ft 526kts
04-Jan-17 19:37 36.579280 -121.261579 143 31090ft 533kts
04-Jan-17 19:38 36.484155 -121.136841 142 32425ft 537kts
04-Jan-17 19:39 36.391457 -121.007268 140 33805ft 539kts
04-Jan-17 19:40 36.303148 -120.879788 141 35000ft 538kts
04-Jan-17 19:41 36.211197 -120.748185 141 35032ft 534kts
04-Jan-17 19:42 36.118384 -120.617639 141 35035ft 536kts
04-Jan-17 19:43 36.030559 -120.493328 140 35040ft 537kts
04-Jan-17 19:44 35.941719 -120.365925 140 35055ft 536kts
04-Jan-17 19:45 35.857275 -120.247604 144 35030ft 531kts
04-Jan-17 19:46 35.766984 -120.134625 145 35032ft 532kts
04-Jan-17 19:47 35.674632 -120.016075 144 35037ft 530kts
04-Jan-17 19:48 35.566102 -119.909820 156 35039ft 510kts
04-Jan-17 19:49 35.454377 -119.814830 156 35060ft 510kts
04-Jan-17 19:50 35.339983 -119.716797 157 35063ft 513kts
04-Jan-17 19:51 35.229631 -119.622470 161 34657ft 478kts
04-Jan-17 19:52 35.121519 -119.536292 157 33495ft 483kts
04-Jan-17 19:53 35.026838 -119.456245 155 32463ft 486kts
04-Jan-17 19:54 34.922054 -119.362946 152 30967ft 495kts
04-Jan-17 19:55 34.821116 -119.273648 155 28698ft 489kts
04-Jan-17 19:56 34.728365 -119.195409 155 26326ft 481kts
04-Jan-17 19:57 34.627241 -119.109959 153 23939ft 461kts
04-Jan-17 19:58 34.535529 -119.032578 153 21192ft 436kts
04-Jan-17 19:59 34.442674 -118.954684 154 18947ft 408kts
04-Jan-17 20:00 34.368208 -118.892772 157 16124ft 392kts
04-Jan-17 20:01 34.275728 -118.853165 172 14081ft 365kts
04-Jan-17 20:02 34.186662 -118.820135 170 12511ft 361kts
04-Jan-17 20:03 34.095824 -118.786787 168 11456ft 360kts
04-Jan-17 20:04 34.043383 -118.729088 112 10624ft 328kts
04-Jan-17 20:05 34.026470 -118.629581 97 8873ft 308kts
04-Jan-17 20:06 34.016823 -118.535343 95 7382ft 303kts
04-Jan-17 20:07 34.008598 -118.449596 95 7050ft 270kts
04-Jan-17 20:08 34.001301 -118.376283 95 6313ft 263kts
04-Jan-17 20:09 33.994791 -118.314549 95 5631ft 255kts
04-Jan-17 20:10 33.999229 -118.255394 71 4993ft 240kts
04-Jan-17 20:11 34.009722 -118.202917 71 4999ft 242kts
04-Jan-17 20:12 34.023499 -118.133786 71 5012ft 241kts
04-Jan-17 20:13 34.031148 -118.071069 109 5007ft 242kts
04-Jan-17 20:14 33.991687 -118.050377 220 5031ft 204kts
04-Jan-17 20:15 33.967389 -118.087997 257 4630ft 189kts
04-Jan-17 20:16 33.962155 -118.137495 267 4090ft 171kts
04-Jan-17 20:17 33.958057 -118.178862 268 3469ft 173kts
04-Jan-17 20:18 33.953788 -118.221447 267 2797ft 172kts
04-Jan-17 20:19 33.949252 -118.266089 267 2039ft 149kts
04-Jan-17 20:20 33.945564 -118.300106 266 1317ft 133kts
04-Jan-17 20:21 33.941755 -118.341251 264 802ft 141kts
04-Jan-17 20:22 33.937641 -118.380225 264 171ft 132kts
04-Jan-17 20:23 33.935832 -118.402148 282 123ft 26kts
04-Jan-17 20:24 33.936140 -118.403377 291 123ft 1kts
04-Jan-17 20:25 33.936083 -118.406212 264 129ft 14kts
04-Jan-17 20:26 33.937007 -118.409000 351 130ft 13kts
04-Jan-17 20:27 33.938081 -118.407085 81 130ft 10kts
04-Jan-17 20:28 33.938984 -118.405352 355 126ft 9kts
04-Jan-17 20:29 33.940191 -118.405029 76 126ft 3kts
04-Jan-17 20:30 33.940204 -118.404957 77 126ft 0kts
04-Jan-17 20:31 33.940204 -118.404957 77 126ft 0kts
04-Jan-17 20:32 33.940204 -118.404957 77 126ft 0kts
04-Jan-17 20:33 33.940204 -118.404957 77 126ft 0kts

Navigation Log

Ident Type
1. KSFO Airport
2. SSTIK Fix
3. PORTE Fix
4. SUSEY Fix
5. EBAYE Fix
6. AVE Navaid
7. DERBB Fix
8. REYES Fix
9. FIM Navaid
10. SYMON Fix
11. SADDE Fix
12. BAYST Fix
13. SMO Navaid
14. KLAX Airport